Time;durP1;ratioP1;P1;durP2;ratioP2;P2;SDS_P1;SDS_P2;PMS_P1;PMS_P2;Temp;Humidity;BMP_temperature;BMP_pressure;BME280_temperature;BME280_humidity;BME280_pressure;Samples;Min_cycle;Max_cycle;Signal;HPM_P1;HPM_P2
2022/02/15 00:01:01;;;;;;;0.10;0.10;;;;;;;;;;4425214;32;20050;-50
2022/02/15 00:03:30;;;;;;;0.30;0.30;;;;;;;;;;4427014;32;20081;-52
2022/02/15 00:05:59;;;;;;;0.55;0.30;;;;;;;;;;4429472;32;20055;-50
2022/02/15 00:08:27;;;;;;;0.20;0.10;;;;;;;;;;4439703;32;20034;-54
2022/02/15 00:10:56;;;;;;;0.40;0.20;;;;;;;;;;4434025;32;20038;-50
2022/02/15 00:13:24;;;;;;;0.30;0.13;;;;;;;;;;4443091;32;20097;-51
2022/02/15 00:15:52;;;;;;;0.20;0.20;;;;;;;;;;4438786;32;20049;-52
2022/02/15 00:18:21;;;;;;;0.93;0.10;;;;;;;;;;4441547;32;20394;-50
2022/02/15 00:20:49;;;;;;;0.10;0.10;;;;;;;;;;4431548;32;20447;-50
2022/02/15 00:23:17;;;;;;;0.30;0.10;;;;;;;;;;4439316;32;20042;-51
2022/02/15 00:25:45;;;;;;;0.10;0.10;;;;;;;;;;4431837;32;20042;-50
2022/02/15 00:28:14;;;;;;;0.30;0.10;;;;;;;;;;4435333;32;20400;-51
2022/02/15 00:30:42;;;;;;;0.37;0.20;;;;;;;;;;4436193;32;20052;-51
2022/02/15 00:33:10;;;;;;;0.10;0.10;;;;;;;;;;4431824;32;20034;-50
2022/02/15 00:35:39;;;;;;;0.20;0.20;;;;;;;;;;4431362;32;20041;-50
2022/02/15 00:38:07;;;;;;;0.13;0.13;;;;;;;;;;4432106;32;20459;-50
2022/02/15 00:40:36;;;;;;;0.10;0.10;;;;;;;;;;4440671;32;20091;-51
2022/02/15 00:43:05;;;;;;;0.28;0.10;;;;;;;;;;4442205;32;20077;-51
2022/02/15 00:45:35;;;;;;;0.25;0.10;;;;;;;;;;4432169;32;20064;-55
2022/02/15 00:48:04;;;;;;;0.10;0.10;;;;;;;;;;4437996;32;20086;-52
2022/02/15 00:50:32;;;;;;;0.20;0.20;;;;;;;;;;4439138;32;20042;-50
2022/02/15 00:53:00;;;;;;;0.10;0.10;;;;;;;;;;4429575;32;20157;-52
2022/02/15 00:55:29;;;;;;;0.10;0.10;;;;;;;;;;4437481;32;20078;-51
2022/02/15 00:57:57;;;;;;;0.40;0.20;;;;;;;;;;4436663;32;20055;-50
2022/02/15 01:00:26;;;;;;;0.32;0.20;;;;;;;;;;4435312;32;20041;-51
2022/02/15 01:02:54;;;;;;;0.65;0.20;;;;;;;;;;4440651;32;20061;-54
2022/02/15 01:05:23;;;;;;;0.10;0.10;;;;;;;;;;4439042;32;20038;-50
2022/02/15 01:07:51;;;;;;;0.25;0.20;;;;;;;;;;4438203;32;20058;-50
2022/02/15 01:10:20;;;;;;;1.40;0.20;;;;;;;;;;4431889;32;20162;-50
2022/02/15 01:12:49;;;;;;;0.30;0.20;;;;;;;;;;4436954;32;20042;-51
2022/02/15 01:15:18;;;;;;;0.10;0.10;;;;;;;;;;4432679;32;20038;-54
2022/02/15 01:17:47;;;;;;;0.85;0.20;;;;;;;;;;4434116;32;20525;-51
2022/02/15 01:20:15;;;;;;;0.20;0.20;;;;;;;;;;4429613;32;20404;-51
2022/02/15 01:22:43;;;;;;;0.10;0.10;;;;;;;;;;4432231;32;20121;-52
2022/02/15 01:25:12;;;;;;;0.70;0.10;;;;;;;;;;4434429;32;20043;-54
2022/02/15 01:27:41;;;;;;;0.20;0.20;;;;;;;;;;4430443;32;20360;-51
2022/02/15 01:30:09;;;;;;;0.10;0.10;;;;;;;;;;4425475;32;20057;-51
2022/02/15 01:32:39;;;;;;;0.35;0.13;;;;;;;;;;4433189;32;20054;-51
2022/02/15 01:35:08;;;;;;;0.30;0.10;;;;;;;;;;4432720;32;20062;-52
2022/02/15 01:37:36;;;;;;;0.10;0.10;;;;;;;;;;4447310;32;20057;-50
2022/02/15 01:40:05;;;;;;;0.30;0.13;;;;;;;;;;4445762;32;20314;-51
2022/02/15 01:42:34;;;;;;;0.20;0.20;;;;;;;;;;4434219;32;20078;-53
2022/02/15 01:45:03;;;;;;;0.45;0.10;;;;;;;;;;4446377;32;20068;-53
2022/02/15 01:47:33;;;;;;;1.00;0.15;;;;;;;;;;4437858;32;20443;-51
2022/02/15 01:50:02;;;;;;;0.32;0.25;;;;;;;;;;4438721;32;20214;-52
2022/02/15 01:52:31;;;;;;;0.15;0.15;;;;;;;;;;4438386;32;20086;-50
2022/02/15 01:55:00;;;;;;;0.32;0.20;;;;;;;;;;4432920;32;20029;-52
2022/02/15 01:57:30;;;;;;;0.20;0.20;;;;;;;;;;4443569;32;20073;-52
2022/02/15 02:00:00;;;;;;;0.10;0.10;;;;;;;;;;4429531;32;20093;-51
2022/02/15 02:02:30;;;;;;;0.20;0.20;;;;;;;;;;4443725;32;20189;-51
2022/02/15 02:07:48;;;;;;;0.25;0.20;;;;;;;;;;4437540;32;20094;-54
2022/02/15 02:10:17;;;;;;;0.10;0.10;;;;;;;;;;4432242;32;20043;-50
2022/02/15 02:12:45;;;;;;;0.35;0.10;;;;;;;;;;4439279;32;20101;-51
2022/02/15 02:15:19;;;;;;;0.10;0.10;;;;;;;;;;4442277;32;20030;-52
2022/02/15 02:17:51;;;;;;;0.10;0.10;;;;;;;;;;4435640;32;20046;-54
2022/02/15 02:20:21;;;;;;;0.10;0.10;;;;;;;;;;4431067;32;20101;-50
2022/02/15 02:22:50;;;;;;;0.10;0.10;;;;;;;;;;4438639;32;20053;-54
2022/02/15 02:25:20;;;;;;;0.10;0.10;;;;;;;;;;4445673;32;20049;-51
2022/02/15 02:27:49;;;;;;;0.22;0.10;;;;;;;;;;4436155;32;20447;-54
2022/02/15 02:30:18;;;;;;;0.20;0.20;;;;;;;;;;4436178;32;20399;-52
2022/02/15 02:32:48;;;;;;;0.37;0.10;;;;;;;;;;4433739;32;20030;-52
2022/02/15 02:35:16;;;;;;;0.10;0.10;;;;;;;;;;4435142;32;20060;-52
2022/02/15 02:37:45;;;;;;;0.10;0.10;;;;;;;;;;4439027;32;20041;-54
2022/02/15 02:40:13;;;;;;;0.20;0.20;;;;;;;;;;4439443;32;20200;-51
2022/02/15 02:42:42;;;;;;;0.17;0.10;;;;;;;;;;4447762;32;20069;-53
2022/02/15 02:45:12;;;;;;;0.43;0.15;;;;;;;;;;4432700;32;20143;-52
2022/02/15 02:47:45;;;;;;;0.35;0.20;;;;;;;;;;4445198;32;20056;-51
2022/02/15 02:50:14;;;;;;;0.32;0.10;;;;;;;;;;4431498;32;20030;-51
2022/02/15 02:52:43;;;;;;;0.10;0.10;;;;;;;;;;4445530;32;20061;-54
2022/02/15 02:55:12;;;;;;;0.20;0.10;;;;;;;;;;4446934;32;20555;-52
2022/02/15 02:57:41;;;;;;;0.20;0.10;;;;;;;;;;4431727;32;20046;-51
2022/02/15 03:00:14;;;;;;;0.10;0.10;;;;;;;;;;4439535;32;20104;-51
2022/02/15 03:02:44;;;;;;;0.45;0.10;;;;;;;;;;4440462;32;20042;-51
2022/02/15 03:05:13;;;;;;;0.15;0.10;;;;;;;;;;4437647;32;20042;-54
2022/02/15 03:07:41;;;;;;;0.05;0.05;;;;;;;;;;4431222;32;20176;-52
2022/02/15 03:10:10;;;;;;;0.10;0.10;;;;;;;;;;4439805;32;20039;-52
2022/02/15 03:12:38;;;;;;;0.08;0.08;;;;;;;;;;4438886;32;20181;-51
2022/02/15 03:15:07;;;;;;;0.10;0.10;;;;;;;;;;4434282;32;20038;-51
2022/02/15 03:17:37;;;;;;;0.10;0.10;;;;;;;;;;4444681;32;20045;-51
2022/02/15 03:20:25;;;;;;;0.10;0.10;;;;;;;;;;4444225;32;20049;-52
2022/02/15 03:22:54;;;;;;;0.10;0.10;;;;;;;;;;4440821;32;20101;-51
2022/02/15 03:25:22;;;;;;;0.10;0.10;;;;;;;;;;4437685;32;20052;-52
2022/02/15 03:27:51;;;;;;;0.10;0.10;;;;;;;;;;4434088;32;20504;-53
2022/02/15 03:30:20;;;;;;;0.10;0.10;;;;;;;;;;4439150;32;20049;-54
2022/02/15 03:32:49;;;;;;;0.10;0.10;;;;;;;;;;4435291;32;20467;-51
2022/02/15 03:35:19;;;;;;;0.10;0.10;;;;;;;;;;4447020;32;20057;-51
2022/02/15 03:37:49;;;;;;;0.10;0.10;;;;;;;;;;4441988;32;20050;-51
2022/02/15 03:40:18;;;;;;;0.10;0.10;;;;;;;;;;4446306;32;20042;-54
2022/02/15 03:45:36;;;;;;;0.10;0.10;;;;;;;;;;4440586;32;20839;-54
2022/02/15 03:48:05;;;;;;;0.10;0.10;;;;;;;;;;4429659;32;20050;-55
2022/02/15 03:50:33;;;;;;;0.10;0.10;;;;;;;;;;4440943;32;20054;-52
2022/02/15 03:53:02;;;;;;;0.20;0.10;;;;;;;;;;4441741;32;20081;-52
2022/02/15 03:55:30;;;;;;;0.10;0.10;;;;;;;;;;4431781;32;20364;-52
2022/02/15 03:57:59;;;;;;;0.10;0.10;;;;;;;;;;4424560;32;20050;-52
2022/02/15 04:00:27;;;;;;;0.10;0.10;;;;;;;;;;4439067;32;20030;-51
2022/02/15 04:02:57;;;;;;;0.10;0.10;;;;;;;;;;4437943;32;20101;-54
2022/02/15 04:05:25;;;;;;;0.00;0.00;;;;;;;;;;4440464;32;20415;-52
2022/02/15 04:07:53;;;;;;;0.20;0.10;;;;;;;;;;4438715;32;20029;-55
2022/02/15 04:10:22;;;;;;;0.20;0.10;;;;;;;;;;4436521;32;20119;-52
2022/02/15 04:12:51;;;;;;;0.10;0.10;;;;;;;;;;4441007;32;20380;-54
2022/02/15 04:15:20;;;;;;;0.10;0.10;;;;;;;;;;4439019;32;20420;-55
2022/02/15 04:17:49;;;;;;;0.10;0.10;;;;;;;;;;4431274;32;20082;-55
2022/02/15 04:20:17;;;;;;;0.10;0.10;;;;;;;;;;4438697;32;20109;-56
2022/02/15 04:22:46;;;;;;;0.10;0.10;;;;;;;;;;4429030;32;20038;-54
2022/02/15 04:25:16;;;;;;;0.30;0.10;;;;;;;;;;4440820;32;20037;-51
2022/02/15 04:27:44;;;;;;;0.10;0.10;;;;;;;;;;4433308;32;20030;-53
2022/02/15 04:30:14;;;;;;;0.10;0.10;;;;;;;;;;4441050;32;20043;-55
2022/02/15 04:32:43;;;;;;;0.10;0.10;;;;;;;;;;4427653;32;20097;-55
2022/02/15 04:35:12;;;;;;;0.10;0.10;;;;;;;;;;4446408;32;20473;-52
2022/02/15 04:37:40;;;;;;;0.10;0.10;;;;;;;;;;4433415;32;20050;-51
2022/02/15 04:40:10;;;;;;;0.10;0.10;;;;;;;;;;4439579;32;20102;-52
2022/02/15 04:42:39;;;;;;;0.17;0.10;;;;;;;;;;4432260;32;20410;-53
2022/02/15 04:45:08;;;;;;;0.10;0.10;;;;;;;;;;4436577;32;20041;-55
2022/02/15 04:47:38;;;;;;;0.10;0.10;;;;;;;;;;4430339;32;20472;-55
2022/02/15 04:50:06;;;;;;;0.10;0.10;;;;;;;;;;4425527;32;20445;-55
2022/02/15 04:52:35;;;;;;;0.10;0.10;;;;;;;;;;4435116;32;20042;-52
2022/02/15 04:55:04;;;;;;;0.10;0.10;;;;;;;;;;4437478;32;21989;-51
2022/02/15 04:57:32;;;;;;;0.20;0.20;;;;;;;;;;4440630;32;20089;-53
2022/02/15 05:00:01;;;;;;;0.20;0.20;;;;;;;;;;4427985;32;20038;-53
2022/02/15 05:02:31;;;;;;;0.10;0.10;;;;;;;;;;4433740;32;20094;-54
2022/02/15 05:05:01;;;;;;;0.20;0.10;;;;;;;;;;4426394;32;20395;-55
2022/02/15 05:07:35;;;;;;;0.30;0.10;;;;;;;;;;4437694;32;20038;-53
2022/02/15 05:10:04;;;;;;;0.20;0.10;;;;;;;;;;4436534;32;20048;-56
2022/02/15 05:12:34;;;;;;;0.10;0.10;;;;;;;;;;4430575;32;20034;-52
2022/02/15 05:15:02;;;;;;;1.20;0.20;;;;;;;;;;4427449;32;20104;-51
2022/02/15 05:17:31;;;;;;;0.60;0.15;;;;;;;;;;4433306;32;20109;-52
2022/02/15 05:20:00;;;;;;;0.20;0.13;;;;;;;;;;4432629;32;20046;-54
2022/02/15 05:22:29;;;;;;;0.20;0.17;;;;;;;;;;4435171;32;20022;-52
2022/02/15 05:24:57;;;;;;;1.30;0.10;;;;;;;;;;4434139;32;20062;-54
2022/02/15 05:27:30;;;;;;;0.90;0.20;;;;;;;;;;4432032;32;20042;-52
2022/02/15 05:29:58;;;;;;;0.28;0.10;;;;;;;;;;4433186;32;20577;-53
2022/02/15 05:32:27;;;;;;;0.35;0.20;;;;;;;;;;4445314;32;20077;-50
2022/02/15 05:34:56;;;;;;;0.25;0.10;;;;;;;;;;4435316;32;20042;-51
2022/02/15 05:37:24;;;;;;;0.20;0.13;;;;;;;;;;4434515;32;20108;-54
2022/02/15 05:39:53;;;;;;;0.47;0.10;;;;;;;;;;4444010;32;20085;-53
2022/02/15 05:42:23;;;;;;;0.13;0.13;;;;;;;;;;4440165;32;20068;-53
2022/02/15 05:44:52;;;;;;;0.45;0.20;;;;;;;;;;4434417;32;20057;-53
2022/02/15 05:47:20;;;;;;;1.12;0.20;;;;;;;;;;4433785;32;20049;-52
2022/02/15 05:52:39;;;;;;;0.50;0.10;;;;;;;;;;4436614;32;20045;-52
2022/02/15 05:55:10;;;;;;;0.10;0.10;;;;;;;;;;4441159;32;20056;-51
2022/02/15 05:57:39;;;;;;;0.25;0.10;;;;;;;;;;4439904;32;20066;-54
2022/02/15 06:00:08;;;;;;;0.10;0.10;;;;;;;;;;4437343;32;20054;-50
2022/02/15 06:02:42;;;;;;;0.20;0.20;;;;;;;;;;4435217;32;20535;-53
2022/02/15 06:05:10;;;;;;;2.95;0.20;;;;;;;;;;4434407;32;20088;-51
2022/02/15 06:07:39;;;;;;;1.42;0.25;;;;;;;;;;4439905;32;20359;-51
2022/02/15 06:10:08;;;;;;;2.40;0.20;;;;;;;;;;4445629;32;20045;-54
2022/02/15 06:12:37;;;;;;;1.02;0.20;;;;;;;;;;4442863;32;20480;-55
2022/02/15 06:15:06;;;;;;;0.45;0.20;;;;;;;;;;4440095;32;20091;-54
2022/02/15 06:17:38;;;;;;;0.10;0.10;;;;;;;;;;4438665;32;20049;-55
2022/02/15 06:20:07;;;;;;;0.10;0.10;;;;;;;;;;4429247;32;20042;-55
2022/02/15 06:22:35;;;;;;;0.57;0.10;;;;;;;;;;4435442;32;20030;-50
2022/02/15 06:25:05;;;;;;;1.40;0.20;;;;;;;;;;4446228;32;20384;-51
2022/02/15 06:27:35;;;;;;;0.32;0.20;;;;;;;;;;4442770;32;20042;-54
2022/02/15 06:30:04;;;;;;;0.88;0.20;;;;;;;;;;4433540;32;20084;-53
2022/02/15 06:32:33;;;;;;;0.40;0.10;;;;;;;;;;4435895;32;20100;-50
2022/02/15 06:35:02;;;;;;;0.10;0.10;;;;;;;;;;4438806;32;20443;-55
2022/02/15 06:37:30;;;;;;;1.65;0.20;;;;;;;;;;4439789;32;20445;-53
2022/02/15 06:39:59;;;;;;;1.55;0.20;;;;;;;;;;4438678;32;20097;-53
2022/02/15 06:42:30;;;;;;;1.37;0.20;;;;;;;;;;4443260;32;20064;-54
2022/02/15 06:44:58;;;;;;;0.90;0.20;;;;;;;;;;4433471;32;20042;-51
2022/02/15 06:47:27;;;;;;;0.40;0.20;;;;;;;;;;4432948;32;20383;-52
2022/02/15 06:49:59;;;;;;;1.25;0.15;;;;;;;;;;4438596;32;20115;-52
2022/02/15 06:52:31;;;;;;;0.57;0.20;;;;;;;;;;4442137;32;20143;-53
2022/02/15 06:55:20;;;;;;;1.05;0.20;;;;;;;;;;4435032;32;20426;-54
2022/02/15 06:57:49;;;;;;;0.10;0.10;;;;;;;;;;4439873;32;20050;-51
2022/02/15 07:00:17;;;;;;;0.65;0.20;;;;;;;;;;4436552;32;20484;-54
2022/02/15 07:02:47;;;;;;;2.05;0.20;;;;;;;;;;4440828;32;20061;-53
2022/02/15 07:05:16;;;;;;;0.40;0.20;;;;;;;;;;4438109;32;20117;-53
2022/02/15 07:07:47;;;;;;;0.30;0.20;;;;;;;;;;4442630;32;20087;-55
2022/02/15 07:10:16;;;;;;;0.62;0.20;;;;;;;;;;4439429;32;20100;-52
2022/02/15 07:12:45;;;;;;;2.12;0.20;;;;;;;;;;4435314;32;20431;-52
2022/02/15 07:15:14;;;;;;;0.17;0.10;;;;;;;;;;4433982;32;20039;-50
2022/02/15 07:17:43;;;;;;;0.43;0.20;;;;;;;;;;4437069;32;20079;-52
2022/02/15 07:20:13;;;;;;;1.55;0.10;;;;;;;;;;4446753;32;20042;-54
2022/02/15 07:22:43;;;;;;;0.80;0.17;;;;;;;;;;4433237;32;20218;-52
2022/02/15 07:25:15;;;;;;;1.80;0.10;;;;;;;;;;4436332;32;20098;-52
2022/02/15 07:27:44;;;;;;;0.25;0.17;;;;;;;;;;4444050;32;20034;-52
2022/02/15 07:30:13;;;;;;;4.85;0.20;;;;;;;;;;4440456;32;20095;-53
2022/02/15 07:32:42;;;;;;;0.73;0.20;;;;;;;;;;4430394;32;20061;-55
2022/02/15 07:35:15;;;;;;;0.52;0.30;;;;;;;;;;4433582;32;20042;-53
2022/02/15 07:37:46;;;;;;;0.52;0.20;;;;;;;;;;4440002;32;20070;-54
2022/02/15 07:40:21;;;;;;;0.60;0.10;;;;;;;;;;4438776;32;20050;-52
2022/02/15 07:42:49;;;;;;;0.52;0.22;;;;;;;;;;4446904;32;20379;-52
2022/02/15 07:45:19;;;;;;;0.70;0.28;;;;;;;;;;4430505;32;20424;-50
2022/02/15 07:47:48;;;;;;;0.10;0.10;;;;;;;;;;4431484;32;20413;-54
2022/02/15 07:50:17;;;;;;;0.40;0.10;;;;;;;;;;4436043;32;20038;-54
2022/02/15 07:52:50;;;;;;;0.65;0.25;;;;;;;;;;4432205;32;20082;-55
2022/02/15 07:55:19;;;;;;;0.20;0.10;;;;;;;;;;4431624;32;20042;-51
2022/02/15 07:57:48;;;;;;;0.85;0.20;;;;;;;;;;4440794;32;20114;-52
2022/02/15 08:00:21;;;;;;;0.73;0.20;;;;;;;;;;4438357;32;20038;-51
2022/02/15 08:02:51;;;;;;;0.20;0.20;;;;;;;;;;4428494;32;20369;-51
2022/02/15 08:05:20;;;;;;;0.37;0.10;;;;;;;;;;4430802;32;20033;-53
2022/02/15 08:07:58;;;;;;;0.17;0.17;;;;;;;;;;4432397;32;20051;-52
2022/02/15 08:10:28;;;;;;;0.10;0.10;;;;;;;;;;4438883;32;20054;-54
2022/02/15 08:12:57;;;;;;;0.20;0.20;;;;;;;;;;4435816;32;20064;-51
2022/02/15 08:15:28;;;;;;;0.35;0.10;;;;;;;;;;4437963;32;20104;-51
2022/02/15 08:17:57;;;;;;;0.90;0.20;;;;;;;;;;4435450;32;20473;-52
2022/02/15 08:20:33;;;;;;;0.10;0.10;;;;;;;;;;4434521;32;20041;-54
2022/02/15 08:23:01;;;;;;;2.20;0.13;;;;;;;;;;4430945;32;20105;-51
2022/02/15 08:25:29;;;;;;;0.20;0.10;;;;;;;;;;4434180;32;20090;-54
2022/02/15 08:27:58;;;;;;;0.20;0.10;;;;;;;;;;4442914;32;20063;-54
2022/02/15 08:30:28;;;;;;;0.10;0.10;;;;;;;;;;4435780;32;20034;-51
2022/02/15 08:32:57;;;;;;;0.25;0.10;;;;;;;;;;4431426;32;20038;-55
2022/02/15 08:35:25;;;;;;;1.65;0.10;;;;;;;;;;4434105;32;20063;-55
2022/02/15 08:37:54;;;;;;;0.15;0.10;;;;;;;;;;4441037;32;20490;-54
2022/02/15 08:40:23;;;;;;;0.40;0.10;;;;;;;;;;4424033;32;20082;-53
2022/02/15 08:42:52;;;;;;;0.13;0.10;;;;;;;;;;4434166;32;20376;-54
2022/02/15 08:45:22;;;;;;;0.50;0.17;;;;;;;;;;4442107;32;20042;-54
2022/02/15 08:47:50;;;;;;;0.10;0.10;;;;;;;;;;4432819;32;20109;-54
2022/02/15 08:50:19;;;;;;;0.90;0.10;;;;;;;;;;4432267;32;20048;-52
2022/02/15 08:52:48;;;;;;;0.13;0.10;;;;;;;;;;4434054;32;20053;-51
2022/02/15 08:55:17;;;;;;;0.70;0.17;;;;;;;;;;4437235;32;20421;-55
2022/02/15 08:57:45;;;;;;;0.55;0.10;;;;;;;;;;4435320;32;20029;-54
2022/02/15 09:00:15;;;;;;;0.03;0.03;;;;;;;;;;4436395;32;20165;-55
2022/02/15 09:02:44;;;;;;;0.43;0.10;;;;;;;;;;4435704;32;20119;-54
2022/02/15 09:05:12;;;;;;;1.37;0.10;;;;;;;;;;4441550;32;20591;-54
2022/02/15 09:07:40;;;;;;;0.20;0.10;;;;;;;;;;4441507;32;20049;-53
2022/02/15 09:10:09;;;;;;;0.10;0.10;;;;;;;;;;4435533;32;20064;-55
2022/02/15 09:12:37;;;;;;;0.10;0.10;;;;;;;;;;4440800;32;20327;-51
2022/02/15 09:15:08;;;;;;;0.28;0.10;;;;;;;;;;4438379;32;20056;-55
2022/02/15 09:17:39;;;;;;;0.20;0.10;;;;;;;;;;4438036;32;20052;-52
2022/02/15 09:20:08;;;;;;;0.10;0.10;;;;;;;;;;4434411;32;20364;-52
2022/02/15 09:22:36;;;;;;;0.62;0.20;;;;;;;;;;4435365;32;20497;-54
2022/02/15 09:25:05;;;;;;;0.43;0.10;;;;;;;;;;4442331;32;20179;-55
2022/02/15 09:27:34;;;;;;;0.10;0.10;;;;;;;;;;4437405;32;20094;-52
2022/02/15 09:30:02;;;;;;;0.50;0.20;;;;;;;;;;4435416;32;20341;-52
2022/02/15 09:32:31;;;;;;;0.82;0.40;;;;;;;;;;4425532;32;20085;-53
2022/02/15 09:34:59;;;;;;;0.10;0.10;;;;;;;;;;4426373;32;20425;-54
2022/02/15 09:37:27;;;;;;;0.40;0.20;;;;;;;;;;4432812;32;20038;-54
2022/02/15 09:39:56;;;;;;;0.85;0.10;;;;;;;;;;4443581;32;20132;-54
2022/02/15 09:42:26;;;;;;;0.65;0.22;;;;;;;;;;4431293;32;20114;-54
2022/02/15 09:44:54;;;;;;;0.20;0.10;;;;;;;;;;4430911;32;20114;-52
2022/02/15 09:47:24;;;;;;;0.28;0.17;;;;;;;;;;4435907;32;20034;-53
2022/02/15 09:49:53;;;;;;;0.95;0.20;;;;;;;;;;4433057;32;20046;-53
2022/02/15 09:52:25;;;;;;;0.30;0.20;;;;;;;;;;4433498;32;20128;-53
2022/02/15 09:54:55;;;;;;;0.25;0.10;;;;;;;;;;4439675;32;20118;-51
2022/02/15 09:57:24;;;;;;;0.20;0.10;;;;;;;;;;4443215;32;20078;-55
2022/02/15 09:59:53;;;;;;;0.30;0.10;;;;;;;;;;4444405;32;20391;-50
2022/02/15 10:02:27;;;;;;;0.77;0.20;;;;;;;;;;4432451;32;20038;-55
2022/02/15 10:04:57;;;;;;;0.45;0.10;;;;;;;;;;4424837;32;20038;-53
2022/02/15 10:07:25;;;;;;;0.30;0.10;;;;;;;;;;4446501;32;20072;-52
2022/02/15 10:09:55;;;;;;;0.15;0.10;;;;;;;;;;4423597;32;20107;-53
2022/02/15 10:12:24;;;;;;;1.15;0.10;;;;;;;;;;4429630;32;20089;-53
2022/02/15 10:14:54;;;;;;;0.55;0.20;;;;;;;;;;4426146;32;20097;-53
2022/02/15 10:17:23;;;;;;;0.50;0.20;;;;;;;;;;4433853;32;20060;-51
2022/02/15 10:19:54;;;;;;;0.17;0.10;;;;;;;;;;4440919;32;20434;-53
2022/02/15 10:22:24;;;;;;;0.28;0.20;;;;;;;;;;4434656;32;20035;-51
2022/02/15 10:24:54;;;;;;;0.90;0.22;;;;;;;;;;4429867;32;20501;-55
2022/02/15 10:27:28;;;;;;;0.45;0.10;;;;;;;;;;4433840;32;20037;-54
2022/02/15 10:29:57;;;;;;;0.20;0.10;;;;;;;;;;4434835;32;20128;-53
2022/02/15 10:32:26;;;;;;;0.30;0.17;;;;;;;;;;4436816;32;20082;-55
2022/02/15 10:34:58;;;;;;;0.22;0.10;;;;;;;;;;4434428;32;20046;-55
2022/02/15 10:37:28;;;;;;;0.52;0.20;;;;;;;;;;4437534;32;20090;-54
2022/02/15 10:40:01;;;;;;;0.22;0.10;;;;;;;;;;4434354;32;20046;-55
2022/02/15 10:42:31;;;;;;;0.43;0.13;;;;;;;;;;4437339;32;20066;-54
2022/02/15 10:44:59;;;;;;;0.10;0.10;;;;;;;;;;4434780;32;20056;-53
2022/02/15 10:47:29;;;;;;;0.17;0.17;;;;;;;;;;4434906;32;20056;-52
2022/02/15 10:49:59;;;;;;;1.17;0.20;;;;;;;;;;4431580;32;20448;-54
2022/02/15 10:52:28;;;;;;;0.20;0.20;;;;;;;;;;4444655;32;20033;-52
2022/02/15 10:54:56;;;;;;;1.25;0.20;;;;;;;;;;4444953;32;20045;-54
2022/02/15 10:57:25;;;;;;;0.47;0.10;;;;;;;;;;4430420;32;20057;-53
2022/02/15 10:59:55;;;;;;;0.75;0.20;;;;;;;;;;4431503;32;20503;-55
2022/02/15 11:02:25;;;;;;;0.57;0.20;;;;;;;;;;4441474;32;20369;-56
2022/02/15 11:04:56;;;;;;;0.70;0.15;;;;;;;;;;4440683;32;20419;-51
2022/02/15 11:07:26;;;;;;;0.20;0.15;;;;;;;;;;4426308;32;20518;-52
2022/02/15 11:10:02;;;;;;;3.12;0.20;;;;;;;;;;4439251;32;20400;-55
2022/02/15 11:12:40;;;;;;;1.00;0.20;;;;;;;;;;4438778;32;20046;-55
2022/02/15 11:15:09;;;;;;;1.05;0.20;;;;;;;;;;4435645;32;20116;-58
2022/02/15 11:17:47;;;;;;;5.22;0.32;;;;;;;;;;4433488;32;20141;-55
2022/02/15 11:20:17;;;;;;;3.10;0.50;;;;;;;;;;4442513;32;20046;-60
2022/02/15 11:22:47;;;;;;;2.87;0.50;;;;;;;;;;4434302;32;20092;-55
2022/02/15 11:25:16;;;;;;;2.75;0.65;;;;;;;;;;4432669;32;20057;-54
2022/02/15 11:27:51;;;;;;;4.72;0.47;;;;;;;;;;4430917;32;20152;-54
2022/02/15 11:30:20;;;;;;;3.70;0.50;;;;;;;;;;4439660;32;20050;-54
2022/02/15 11:32:54;;;;;;;4.35;0.60;;;;;;;;;;4442682;32;20045;-56
2022/02/15 11:35:22;;;;;;;2.22;0.65;;;;;;;;;;4423829;32;20414;-55
2022/02/15 11:37:51;;;;;;;9.60;0.90;;;;;;;;;;4428799;32;20369;-63
2022/02/15 11:40:20;;;;;;;6.85;0.65;;;;;;;;;;4428684;32;20095;-62
2022/02/15 11:42:50;;;;;;;4.68;0.80;;;;;;;;;;4432727;32;20375;-63
2022/02/15 11:45:28;;;;;;;5.70;1.42;;;;;;;;;;4429562;32;20445;-63
2022/02/15 11:48:04;;;;;;;7.43;1.50;;;;;;;;;;4437252;32;20376;-61
2022/02/15 11:50:48;;;;;;;7.60;1.15;;;;;;;;;;4433767;32;20398;-55
2022/02/15 11:53:18;;;;;;;7.22;1.30;;;;;;;;;;4429835;32;20405;-52
2022/02/15 11:55:47;;;;;;;8.35;1.10;;;;;;;;;;4434521;32;20041;-54
2022/02/15 11:58:15;;;;;;;12.68;1.65;;;;;;;;;;4428873;32;20408;-53
2022/02/15 12:00:45;;;;;;;10.40;1.20;;;;;;;;;;4435761;32;20109;-50
2022/02/15 12:03:15;;;;;;;9.40;1.23;;;;;;;;;;4434605;32;20078;-53
2022/02/15 12:05:46;;;;;;;6.85;0.90;;;;;;;;;;4432276;32;20097;-50
2022/02/15 12:08:21;;;;;;;7.10;1.23;;;;;;;;;;4435661;32;20085;-50
2022/02/15 12:10:51;;;;;;;14.05;1.52;;;;;;;;;;4428251;32;20060;-53
2022/02/15 12:13:21;;;;;;;9.00;1.15;;;;;;;;;;4430130;32;20043;-52
2022/02/15 12:15:53;;;;;;;6.72;1.12;;;;;;;;;;4443458;32;20061;-51
2022/02/15 12:18:29;;;;;;;6.97;1.00;;;;;;;;;;4443214;32;20038;-52
2022/02/15 12:20:57;;;;;;;7.22;1.08;;;;;;;;;;4426410;32;20052;-55
2022/02/15 12:23:27;;;;;;;3.10;1.02;;;;;;;;;;4440037;32;20117;-51
2022/02/15 12:25:55;;;;;;;6.60;1.00;;;;;;;;;;4440240;32;20054;-52
2022/02/15 12:28:26;;;;;;;5.95;0.90;;;;;;;;;;4437007;32;20119;-53
2022/02/15 12:30:57;;;;;;;7.15;1.30;;;;;;;;;;4443570;32;20118;-53
2022/02/15 12:33:35;;;;;;;5.72;1.05;;;;;;;;;;4440332;32;20489;-54
2022/02/15 12:36:07;;;;;;;5.18;1.30;;;;;;;;;;4440650;32;20394;-54
2022/02/15 12:38:37;;;;;;;6.40;0.93;;;;;;;;;;4433620;32;20463;-55
2022/02/15 12:41:18;;;;;;;3.90;0.77;;;;;;;;;;4429344;32;20050;-53
2022/02/15 12:43:49;;;;;;;8.27;1.55;;;;;;;;;;4444005;32;20046;-51
2022/02/15 12:46:17;;;;;;;3.78;1.10;;;;;;;;;;4428068;32;20428;-54
2022/02/15 12:48:46;;;;;;;5.45;1.20;;;;;;;;;;4434313;32;20067;-54
2022/02/15 12:51:14;;;;;;;3.90;1.00;;;;;;;;;;4437955;32;20531;-51
2022/02/15 12:53:50;;;;;;;5.62;1.10;;;;;;;;;;4434309;32;20038;-54
2022/02/15 12:56:21;;;;;;;3.58;0.80;;;;;;;;;;4439977;32;20097;-55
2022/02/15 12:58:52;;;;;;;6.80;0.95;;;;;;;;;;4433690;32;20459;-52
2022/02/15 13:01:20;;;;;;;7.00;1.25;;;;;;;;;;4427998;32;20087;-54
2022/02/15 13:03:51;;;;;;;7.40;1.37;;;;;;;;;;4441247;32;20059;-55
2022/02/15 13:06:21;;;;;;;5.85;1.15;;;;;;;;;;4440465;32;20097;-55
2022/02/15 13:08:51;;;;;;;7.70;1.15;;;;;;;;;;4443134;32;20038;-56
2022/02/15 13:11:25;;;;;;;6.20;1.08;;;;;;;;;;4440636;32;20433;-54
2022/02/15 13:13:54;;;;;;;7.72;1.08;;;;;;;;;;4441375;32;20041;-54
2022/02/15 13:16:22;;;;;;;6.25;1.00;;;;;;;;;;4435363;32;20415;-54
2022/02/15 13:18:53;;;;;;;7.57;1.15;;;;;;;;;;4439971;32;20059;-51
2022/02/15 13:21:23;;;;;;;5.10;1.08;;;;;;;;;;4442148;32;20030;-53
2022/02/15 13:24:01;;;;;;;5.37;1.23;;;;;;;;;;4443874;32;20109;-53
2022/02/15 13:26:30;;;;;;;5.68;1.02;;;;;;;;;;4427353;32;20318;-51
2022/02/15 13:28:59;;;;;;;8.68;1.50;;;;;;;;;;4439804;32;20052;-54
2022/02/15 13:31:29;;;;;;;7.37;1.30;;;;;;;;;;4441915;32;20454;-51
2022/02/15 13:33:57;;;;;;;5.28;1.10;;;;;;;;;;4430668;32;20477;-54
2022/02/15 13:36:37;;;;;;;8.77;1.35;;;;;;;;;;4445010;32;20409;-52
2022/02/15 13:39:07;;;;;;;8.27;1.35;;;;;;;;;;4442532;32;20033;-55
2022/02/15 13:41:35;;;;;;;6.93;1.37;;;;;;;;;;4441183;32;20453;-52
2022/02/15 13:44:05;;;;;;;6.18;1.10;;;;;;;;;;4431181;32;20054;-50
2022/02/15 13:46:37;;;;;;;8.35;1.33;;;;;;;;;;4427906;32;20527;-51
2022/02/15 13:49:11;;;;;;;6.85;1.15;;;;;;;;;;4431517;32;20113;-53
2022/02/15 13:51:39;;;;;;;5.97;1.67;;;;;;;;;;4428348;32;20041;-55
2022/02/15 13:54:08;;;;;;;5.72;1.05;;;;;;;;;;4430004;32;20035;-51
2022/02/15 13:56:40;;;;;;;6.53;1.20;;;;;;;;;;4439670;32;20456;-53
2022/02/15 13:59:10;;;;;;;6.43;1.10;;;;;;;;;;4435438;32;20086;-51
2022/02/15 14:01:40;;;;;;;6.82;1.30;;;;;;;;;;4439050;32;20118;-51
2022/02/15 14:04:09;;;;;;;8.27;1.08;;;;;;;;;;4435697;32;20026;-53
2022/02/15 14:06:38;;;;;;;13.13;1.60;;;;;;;;;;4432232;32;20488;-57
2022/02/15 14:09:06;;;;;;;10.55;1.62;;;;;;;;;;4436727;32;20045;-53
2022/02/15 14:11:35;;;;;;;14.93;1.48;;;;;;;;;;4433612;32;20089;-57
2022/02/15 14:14:03;;;;;;;12.18;1.50;;;;;;;;;;4436436;32;20429;-58
2022/02/15 14:16:32;;;;;;;12.80;1.45;;;;;;;;;;4443856;32;20090;-57
2022/02/15 14:19:01;;;;;;;7.20;1.05;;;;;;;;;;4435322;32;20033;-58
2022/02/15 14:21:35;;;;;;;8.85;1.20;;;;;;;;;;4443454;32;20330;-57
2022/02/15 14:24:07;;;;;;;8.10;1.08;;;;;;;;;;4436360;32;20425;-56
2022/02/15 14:26:37;;;;;;;6.97;1.02;;;;;;;;;;4440574;32;20448;-56
2022/02/15 14:29:06;;;;;;;10.13;1.02;;;;;;;;;;4438954;32;20039;-52
2022/02/15 14:31:35;;;;;;;9.02;1.10;;;;;;;;;;4432882;32;20068;-52
2022/02/15 14:34:03;;;;;;;6.85;0.90;;;;;;;;;;4440260;32;20041;-52
2022/02/15 14:36:32;;;;;;;9.10;1.00;;;;;;;;;;4439474;32;20509;-57
2022/02/15 14:39:00;;;;;;;10.95;1.45;;;;;;;;;;4431688;32;20112;-55
2022/02/15 14:41:28;;;;;;;9.95;1.02;;;;;;;;;;4437432;32;20466;-56
2022/02/15 14:43:57;;;;;;;8.27;0.93;;;;;;;;;;4440574;32;20093;-56
2022/02/15 14:46:26;;;;;;;3.70;0.88;;;;;;;;;;4440997;32;20099;-55
2022/02/15 14:48:55;;;;;;;5.53;0.90;;;;;;;;;;4437488;32;20428;-56
2022/02/15 14:51:24;;;;;;;3.25;0.50;;;;;;;;;;4439334;32;20070;-54
2022/02/15 14:53:53;;;;;;;5.32;0.77;;;;;;;;;;4440669;32;20113;-53
2022/02/15 14:56:22;;;;;;;3.05;0.65;;;;;;;;;;4429092;32;20052;-54
2022/02/15 14:58:51;;;;;;;4.78;0.70;;;;;;;;;;4438914;32;20050;-54
2022/02/15 15:01:19;;;;;;;6.87;0.50;;;;;;;;;;4431594;32;20087;-54
2022/02/15 15:03:47;;;;;;;2.65;0.65;;;;;;;;;;4436804;32;20038;-55
2022/02/15 15:06:16;;;;;;;1.77;0.40;;;;;;;;;;4433350;32;20030;-55